Time;durP1;ratioP1;P1;durP2;ratioP2;P2;SDS_P1;SDS_P2;PMS_P1;PMS_P2;Temp;Humidity;BMP_temperature;BMP_pressure;BME280_temperature;BME280_humidity;BME280_pressure;Samples;Min_cycle;Max_cycle;Signal;HPM_P1;HPM_P2
2023/10/22 00:00:08;;;;;;;4.50;4.30;;;;;;;13.13;82.78;99114.88;6031911;23;20101;-75
2023/10/22 00:02:36;;;;;;;4.93;4.72;;;;;;;12.34;83.17;99007.66;6040769;23;20009;-74
2023/10/22 00:05:04;;;;;;;6.90;4.63;;;;;;;12.51;84.26;99055.38;6026318;23;20320;-74
2023/10/22 00:07:31;;;;;;;4.70;4.40;;;;;;;12.66;84.18;99095.31;6049689;23;20018;-74
2023/10/22 00:09:58;;;;;;;4.53;4.32;;;;;;;13.13;84.29;99158.81;6052221;23;20085;-74
2023/10/22 00:12:25;;;;;;;4.80;4.60;;;;;;;13.08;84.71;99164.47;6043186;23;20026;-74
2023/10/22 00:14:52;;;;;;;5.47;5.18;;;;;;;13.05;85.52;99161.25;6050348;23;20338;-75
2023/10/22 00:17:18;;;;;;;4.70;4.50;;;;;;;12.94;85.27;99134.06;6023847;23;20085;-74
2023/10/22 00:19:45;;;;;;;4.60;4.40;;;;;;;12.46;86.04;99089.97;6056643;23;20022;-75
2023/10/22 00:22:13;;;;;;;4.50;4.30;;;;;;;12.70;86.47;99147.56;6025947;23;20026;-75
2023/10/22 00:24:41;;;;;;;5.85;5.55;;;;;;;13.04;86.11;99184.13;6053700;23;20033;-74
2023/10/22 00:27:07;;;;;;;6.55;4.80;;;;;;;12.72;86.41;99124.56;6045475;23;20507;-75
2023/10/22 00:29:34;;;;;;;5.22;4.93;;;;;;;12.99;86.33;99191.63;6056149;23;20030;-75
2023/10/22 00:32:01;;;;;;;4.60;4.40;;;;;;;12.53;87.57;99127.97;6027721;23;20468;-76
2023/10/22 00:34:27;;;;;;;4.50;4.30;;;;;;;12.75;86.76;99149.81;6050354;23;20099;-74
2023/10/22 00:36:54;;;;;;;4.70;4.50;;;;;;;12.97;87.71;99188.28;6039583;23;20031;-74
2023/10/22 00:39:20;;;;;;;4.93;4.72;;;;;;;12.49;87.59;99109.94;6050667;23;20062;-74
2023/10/22 00:41:47;;;;;;;6.20;4.53;;;;;;;12.99;87.74;99202.16;6043682;23;20018;-74
2023/10/22 00:44:13;;;;;;;4.88;4.57;;;;;;;12.67;86.91;99125.91;6020717;23;20030;-73
2023/10/22 00:46:45;;;;;;;6.25;5.75;;;;;;;12.41;87.90;99105.31;6041853;23;20118;-74
2023/10/22 00:49:12;;;;;;;4.60;4.40;;;;;;;12.52;87.37;99130.72;6021215;23;20031;-72
2023/10/22 00:51:39;;;;;;;4.90;4.60;;;;;;;12.64;88.74;99153.34;6017332;23;20078;-73
2023/10/22 00:54:06;;;;;;;4.50;4.30;;;;;;;12.79;89.15;99180.16;6055070;23;20482;-72
2023/10/22 00:56:34;;;;;;;4.55;4.35;;;;;;;12.60;88.46;99154.56;6042781;23;20088;-72
2023/10/22 00:59:00;;;;;;;4.65;4.45;;;;;;;12.83;88.78;99170.19;6026550;23;20014;-73
2023/10/22 01:01:27;;;;;;;4.47;4.28;;;;;;;12.31;87.71;99075.50;6048673;23;20031;-73
2023/10/22 01:03:54;;;;;;;4.40;4.20;;;;;;;12.53;87.82;99098.19;6051860;23;20034;-73
2023/10/22 01:06:21;;;;;;;4.60;4.40;;;;;;;13.09;88.15;99196.88;6044524;23;20051;-73
2023/10/22 01:08:48;;;;;;;5.63;5.32;;;;;;;12.61;88.61;99119.41;6053065;23;20031;-74
2023/10/22 01:11:15;;;;;;;4.35;4.15;;;;;;;12.67;88.24;99137.31;6048112;23;20026;-74
2023/10/22 01:13:42;;;;;;;4.45;4.25;;;;;;;12.61;88.39;99134.34;6061475;23;20026;-73
2023/10/22 01:16:08;;;;;;;4.80;4.60;;;;;;;13.09;88.50;99210.06;6041484;23;20052;-74
2023/10/22 01:18:36;;;;;;;5.57;5.28;;;;;;;12.54;88.38;99139.31;6060144;23;20102;-75
2023/10/22 01:21:06;;;;;;;4.40;4.20;;;;;;;12.27;89.85;99105.66;6050654;23;20010;-73
2023/10/22 01:23:39;;;;;;;4.38;4.18;;;;;;;13.05;90.09;99225.31;6060955;23;20423;-73
2023/10/22 01:26:07;;;;;;;4.82;4.50;;;;;;;13.10;90.01;99225.75;6031225;23;20030;-73
2023/10/22 01:28:36;;;;;;;4.47;4.28;;;;;;;12.80;89.67;99194.16;6050947;23;20034;-74
2023/10/22 01:31:10;;;;;;;4.47;4.28;;;;;;;12.66;90.22;99158.47;6062105;23;20019;-75
2023/10/22 01:33:37;;;;;;;4.60;4.40;;;;;;;13.05;90.48;99232.38;6046828;23;20026;-74
2023/10/22 01:36:04;;;;;;;4.78;4.47;;;;;;;12.81;90.39;99203.69;6059005;23;20599;-73
2023/10/22 01:38:30;;;;;;;4.50;4.30;;;;;;;13.03;90.80;99239.56;6020350;23;20042;-73
2023/10/22 01:40:57;;;;;;;4.32;4.13;;;;;;;12.78;90.70;99202.19;6058989;23;20093;-73
2023/10/22 01:43:23;;;;;;;4.22;4.03;;;;;;;13.06;91.20;99241.94;6024553;23;20043;-73
2023/10/22 01:45:50;;;;;;;4.47;4.28;;;;;;;12.24;91.41;99116.44;6052056;23;20041;-72
2023/10/22 01:48:16;;;;;;;5.53;4.20;;;;;;;11.66;91.14;99023.06;6046420;23;20649;-73
2023/10/22 01:50:43;;;;;;;5.55;5.35;;;;;;;12.93;92.52;99240.38;6038613;23;20092;-73
2023/10/22 01:53:10;;;;;;;4.70;4.50;;;;;;;12.40;92.42;99147.53;6051775;23;20058;-72
2023/10/22 01:55:36;;;;;;;4.97;4.47;;;;;;;12.33;92.65;99137.53;6059254;23;20504;-73
2023/10/22 01:58:02;;;;;;;4.80;4.50;;;;;;;12.94;92.92;99251.72;6048002;23;20061;-73
2023/10/22 02:00:30;;;;;;;4.72;4.32;;;;;;;12.97;93.71;99269.91;6058073;23;20034;-73
2023/10/22 02:02:57;;;;;;;4.57;4.32;;;;;;;12.96;93.85;99255.88;6050590;23;20025;-73
2023/10/22 02:05:23;;;;;;;4.35;4.15;;;;;;;12.62;93.38;99207.09;6050115;23;20033;-73
2023/10/22 02:07:50;;;;;;;4.40;4.20;;;;;;;12.84;93.66;99240.31;6020070;23;20011;-72
2023/10/22 02:10:16;;;;;;;4.57;4.38;;;;;;;12.94;93.76;99265.72;6023315;23;20035;-73
2023/10/22 02:12:43;;;;;;;5.95;5.65;;;;;;;12.67;93.75;99218.91;6023826;23;20193;-73
2023/10/22 02:15:09;;;;;;;4.50;4.30;;;;;;;11.80;93.95;99068.38;6059160;23;20052;-72
2023/10/22 02:17:37;;;;;;;5.35;4.82;;;;;;;12.23;94.02;99146.31;6030303;23;20038;-73
2023/10/22 02:20:06;;;;;;;4.93;4.72;;;;;;;12.83;94.43;99244.75;6046290;23;20100;-73
2023/10/22 02:22:33;;;;;;;4.65;4.45;;;;;;;12.57;94.54;99208.31;6027280;23;20017;-73
2023/10/22 02:24:59;;;;;;;4.70;4.50;;;;;;;12.48;94.63;99184.56;6030429;23;20082;-73
2023/10/22 02:27:26;;;;;;;4.55;4.35;;;;;;;12.35;94.54;99156.66;6045225;23;20046;-73
2023/10/22 02:29:52;;;;;;;4.30;4.10;;;;;;;12.95;95.01;99270.03;6023873;23;20026;-74
2023/10/22 02:32:19;;;;;;;4.18;3.97;;;;;;;12.33;94.94;99173.53;6061039;23;20030;-73
2023/10/22 02:34:45;;;;;;;5.28;5.07;;;;;;;12.71;95.73;99270.31;6053499;23;20519;-73
2023/10/22 02:37:12;;;;;;;4.40;4.20;;;;;;;12.44;96.10;99220.81;6031987;23;20425;-73
2023/10/22 02:39:38;;;;;;;4.20;4.00;;;;;;;12.09;96.92;99171.16;6054550;23;20104;-73
2023/10/22 02:42:05;;;;;;;4.30;4.10;;;;;;;12.38;96.56;99203.75;6027290;23;20020;-73
2023/10/22 02:44:32;;;;;;;4.38;4.18;;;;;;;12.33;96.43;99208.56;6031175;23;20021;-74
2023/10/22 02:46:59;;;;;;;4.30;4.10;;;;;;;12.54;97.20;99221.72;6025774;23;20110;-73
2023/10/22 02:49:26;;;;;;;4.53;4.32;;;;;;;13.13;96.08;99314.22;6053015;23;20037;-74
2023/10/22 02:51:53;;;;;;;4.30;4.10;;;;;;;12.94;96.69;99299.94;6059644;23;20037;-74
2023/10/22 02:54:19;;;;;;;4.50;4.30;;;;;;;13.09;97.33;99324.19;6056795;23;20564;-74
2023/10/22 02:56:46;;;;;;;5.70;5.40;;;;;;;12.84;97.10;99285.06;6044841;23;20019;-74
2023/10/22 02:59:13;;;;;;;4.50;4.30;;;;;;;12.41;97.23;99207.94;6050998;23;20720;-75
2023/10/22 03:01:40;;;;;;;4.65;4.40;;;;;;;11.49;97.39;99069.13;6052320;23;20045;-74
2023/10/22 03:04:06;;;;;;;4.40;4.20;;;;;;;13.02;97.82;99324.81;6052489;23;20023;-74
2023/10/22 03:06:33;;;;;;;4.43;4.22;;;;;;;13.10;97.69;99335.53;6056582;23;20105;-74
2023/10/22 03:08:59;;;;;;;4.38;4.18;;;;;;;12.29;98.39;99209.78;6052247;23;20014;-74
2023/10/22 03:11:26;;;;;;;4.43;4.22;;;;;;;12.83;99.01;99309.72;6019846;23;20640;-74
2023/10/22 03:13:53;;;;;;;4.43;4.22;;;;;;;12.02;98.71;99176.06;6053763;23;20023;-74
2023/10/22 03:16:19;;;;;;;4.45;4.25;;;;;;;12.57;98.67;99263.56;6027374;23;20029;-74
2023/10/22 03:18:47;;;;;;;6.65;6.25;;;;;;;12.87;98.67;99316.38;6055245;23;20044;-74
2023/10/22 03:21:16;;;;;;;4.47;4.28;;;;;;;12.92;100.00;99332.66;6030806;23;20100;-74
2023/10/22 03:23:43;;;;;;;4.30;4.10;;;;;;;12.95;100.00;99353.47;6051812;23;20030;-74
2023/10/22 03:26:18;;;;;;;4.47;4.28;;;;;;;12.20;100.00;99249.16;6053859;23;20011;-74
2023/10/22 03:28:45;;;;;;;5.72;5.32;;;;;;;12.90;100.00;99361.75;6043776;23;20022;-73
2023/10/22 03:31:13;;;;;;;4.25;4.05;;;;;;;13.03;100.00;99403.72;6024670;23;20512;-74
2023/10/22 03:33:40;;;;;;;4.60;4.40;;;;;;;13.05;100.00;99411.47;6046641;23;20029;-73
2023/10/22 03:36:09;;;;;;;4.40;4.20;;;;;;;12.47;100.00;99352.13;6027265;23;20030;-74
2023/10/22 03:38:35;;;;;;;4.75;4.55;;;;;;;12.70;100.00;99402.88;6051746;23;20047;-74
2023/10/22 03:41:06;;;;;;;4.57;4.35;;;;;;;12.83;100.00;99433.47;6056846;23;20104;-74
2023/10/22 03:43:34;;;;;;;4.20;4.00;;;;;;;12.90;100.00;99453.06;6048083;23;20059;-74
2023/10/22 03:46:01;;;;;;;4.20;4.00;;;;;;;12.26;100.00;99377.53;6058139;23;20062;-74
2023/10/22 03:48:28;;;;;;;4.60;4.40;;;;;;;12.65;100.00;99441.06;6044877;23;20018;-74
2023/10/22 03:50:56;;;;;;;4.40;4.20;;;;;;;12.72;100.00;99473.84;6056929;23;20027;-74
2023/10/22 03:53:22;;;;;;;5.50;5.30;;;;;;;12.27;100.00;99423.94;6041791;23;20101;-74
2023/10/22 03:55:49;;;;;;;4.40;4.20;;;;;;;12.47;100.00;99443.38;6002579;23;20031;-74
2023/10/22 03:58:16;;;;;;;4.47;4.28;;;;;;;12.56;100.00;99480.31;6050701;23;20093;-74
2023/10/22 04:00:42;;;;;;;5.57;5.38;;;;;;;12.28;100.00;99460.63;6045565;23;20041;-74
2023/10/22 04:03:08;;;;;;;4.40;4.20;;;;;;;12.06;100.00;99447.50;6054489;23;20053;-75
2023/10/22 04:05:35;;;;;;;4.60;4.40;;;;;;;11.74;100.00;99412.22;6019180;23;20078;-75
2023/10/22 04:08:02;;;;;;;4.50;4.30;;;;;;;12.04;100.00;99473.09;6030328;23;20020;-74
2023/10/22 04:10:28;;;;;;;4.45;4.25;;;;;;;12.32;100.00;99519.09;6016838;23;20521;-74
2023/10/22 04:12:55;;;;;;;4.40;4.20;;;;;;;12.33;100.00;99524.25;6046496;23;20626;-74
2023/10/22 04:15:21;;;;;;;4.40;4.20;;;;;;;12.29;100.00;99522.81;6059676;23;20141;-75
2023/10/22 04:17:48;;;;;;;4.60;4.40;;;;;;;12.22;100.00;99528.69;6042862;23;20026;-74
2023/10/22 04:20:15;;;;;;;4.40;4.20;;;;;;;12.29;100.00;99545.66;6024692;23;20026;-74
2023/10/22 04:22:42;;;;;;;5.45;5.25;;;;;;;12.27;100.00;99545.78;6045489;23;20030;-74
2023/10/22 04:25:10;;;;;;;4.35;4.13;;;;;;;11.23;100.00;99393.44;6061924;23;20570;-74
2023/10/22 04:27:37;;;;;;;4.40;4.20;;;;;;;12.24;100.00;99553.06;6051209;23;20026;-73
2023/10/22 04:30:04;;;;;;;4.30;4.10;;;;;;;12.32;100.00;99569.09;5997499;23;20098;-74
2023/10/22 04:32:34;;;;;;;4.60;4.40;;;;;;;11.90;100.00;99490.75;6047828;23;20478;-75
2023/10/22 04:35:02;;;;;;;6.30;4.03;;;;;;;12.16;100.00;99532.63;6056646;23;20018;-74
2023/10/22 04:37:28;;;;;;;4.40;4.20;;;;;;;12.40;100.00;99568.50;6047643;23;20022;-74
2023/10/22 04:39:57;;;;;;;4.30;4.10;;;;;;;11.94;100.00;99502.72;6060288;23;20085;-73
2023/10/22 04:42:27;;;;;;;4.38;4.18;;;;;;;11.95;100.00;99508.81;6046033;23;20118;-74
2023/10/22 04:44:55;;;;;;;4.40;4.20;;;;;;;12.38;100.00;99582.59;6054302;23;20828;-75
2023/10/22 04:47:21;;;;;;;4.18;3.97;;;;;;;12.42;100.00;99585.00;6048810;23;20032;-74
2023/10/22 04:49:51;;;;;;;4.40;4.20;;;;;;;12.39;100.00;99588.72;6058155;23;20096;-72
2023/10/22 04:52:33;;;;;;;4.60;4.20;;;;;;;12.36;100.00;99595.03;6053593;23;20022;-74
2023/10/22 04:55:00;;;;;;;4.32;4.13;;;;;;;12.01;100.00;99532.03;6050458;23;20022;-74
2023/10/22 04:57:27;;;;;;;4.40;4.20;;;;;;;12.26;100.00;99582.72;6060982;23;20553;-74
2023/10/22 04:59:54;;;;;;;4.40;4.20;;;;;;;12.42;100.00;99611.31;6055925;23;20058;-73
2023/10/22 05:02:21;;;;;;;4.50;4.30;;;;;;;12.33;100.00;99599.72;6055696;23;20016;-74
2023/10/22 05:04:50;;;;;;;5.85;5.57;;;;;;;12.51;100.00;99626.41;6054400;23;20464;-74
2023/10/22 05:07:17;;;;;;;4.50;4.30;;;;;;;12.12;100.00;99555.69;6048929;23;20053;-73
2023/10/22 05:09:44;;;;;;;4.30;4.10;;;;;;;12.22;100.00;99597.06;6060060;23;20093;-73
2023/10/22 05:12:10;;;;;;;4.40;4.20;;;;;;;12.46;100.00;99610.94;6036764;23;20069;-74
2023/10/22 05:14:37;;;;;;;5.38;5.18;;;;;;;12.63;100.00;99657.03;6058754;23;20544;-74
2023/10/22 05:17:05;;;;;;;4.40;4.20;;;;;;;11.97;100.00;99543.72;6048609;23;21012;-73
2023/10/22 05:19:32;;;;;;;4.50;4.30;;;;;;;11.95;100.00;99567.50;6055650;23;20034;-73
2023/10/22 05:21:59;;;;;;;4.20;4.00;;;;;;;9.84;100.00;99246.22;6051961;23;20622;-73
2023/10/22 05:24:26;;;;;;;4.22;4.03;;;;;;;11.76;100.00;99570.63;6022964;23;20098;-73
2023/10/22 05:26:53;;;;;;;4.85;4.65;;;;;;;12.30;100.00;99684.97;6051138;23;20058;-73
2023/10/22 05:29:19;;;;;;;4.50;4.30;;;;;;;11.12;100.00;99486.94;6026945;23;20030;-74
2023/10/22 05:31:46;;;;;;;4.40;4.20;;;;;;;12.20;100.00;99676.09;6054851;23;20026;-74
2023/10/22 05:34:12;;;;;;;4.75;4.30;;;;;;;12.25;100.00;99684.47;5998910;23;20039;-73
2023/10/22 05:36:38;;;;;;;5.35;5.15;;;;;;;12.02;100.00;99656.44;6047358;23;20026;-73
2023/10/22 05:39:05;;;;;;;4.30;4.10;;;;;;;12.14;100.00;99693.16;6066158;23;20076;-72
2023/10/22 05:41:31;;;;;;;4.43;4.22;;;;;;;12.06;100.00;99702.59;5994318;23;20711;-73
2023/10/22 05:44:01;;;;;;;4.18;3.97;;;;;;;12.06;100.00;99721.00;6055043;23;20557;-74
2023/10/22 05:46:30;;;;;;;4.35;4.15;;;;;;;11.17;100.00;99568.88;6017977;23;20034;-74
2023/10/22 05:48:57;;;;;;;4.30;4.10;;;;;;;11.16;100.00;99577.72;6053886;23;20023;-75
2023/10/22 05:51:23;;;;;;;4.40;4.20;;;;;;;11.72;100.00;99684.84;6060053;23;20636;-75
2023/10/22 05:53:50;;;;;;;4.47;4.28;;;;;;;11.51;100.00;99660.97;6056290;23;20532;-75
2023/10/22 05:56:17;;;;;;;4.35;4.15;;;;;;;11.83;100.00;99705.09;6060227;23;20026;-75
2023/10/22 05:58:43;;;;;;;5.60;5.40;;;;;;;10.99;100.00;99570.22;6046720;23;20121;-74
2023/10/22 06:01:10;;;;;;;4.40;4.20;;;;;;;11.73;100.00;99704.94;6024074;23;20039;-74
2023/10/22 06:03:37;;;;;;;4.40;4.20;;;;;;;11.36;100.00;99641.06;6046075;23;20093;-74
2023/10/22 06:06:03;;;;;;;4.30;4.10;;;;;;;11.46;100.00;99672.75;6048489;23;20017;-75
2023/10/22 06:08:30;;;;;;;4.50;4.30;;;;;;;11.75;100.00;99720.59;6050771;23;20050;-74
2023/10/22 06:10:56;;;;;;;4.63;4.40;;;;;;;11.62;100.00;99699.59;6051320;23;20034;-74
2023/10/22 06:13:23;;;;;;;4.88;4.57;;;;;;;11.73;100.00;99725.13;6057204;23;20023;-74
2023/10/22 06:15:55;;;;;;;4.30;4.10;;;;;;;11.60;100.00;99721.69;6059696;23;20446;-77
2023/10/22 06:18:22;;;;;;;;;;;;;;;11.67;100.00;99742.16;6051642;23;20093;-76
2023/10/22 06:20:48;;;;;;;5.28;5.07;;;;;;;11.64;100.00;99744.19;6048279;23;20482;-77
2023/10/22 06:23:15;;;;;;;4.20;4.00;;;;;;;11.40;100.00;99713.44;6046138;23;20042;-76
2023/10/22 06:25:43;;;;;;;4.40;4.20;;;;;;;11.03;100.00;99637.28;6057324;23;20418;-77
2023/10/22 06:28:09;;;;;;;4.50;4.30;;;;;;;11.55;100.00;99716.78;6053396;23;20104;-75
2023/10/22 06:30:35;;;;;;;4.97;4.78;;;;;;;11.56;100.00;99721.06;6022215;23;20082;-75
2023/10/22 06:33:05;;;;;;;4.53;4.32;;;;;;;11.01;100.00;99640.97;6059276;23;20033;-74
2023/10/22 06:35:32;;;;;;;4.47;4.28;;;;;;;11.23;100.00;99682.31;6015708;23;20087;-76
2023/10/22 06:37:58;;;;;;;4.50;4.30;;;;;;;11.12;100.00;99660.25;6051766;23;20156;-74
2023/10/22 06:40:25;;;;;;;5.93;4.10;;;;;;;11.02;100.00;99629.53;6056850;23;20715;-78
2023/10/22 06:42:52;;;;;;;4.85;4.65;;;;;;;10.96;100.00;99604.53;6048812;23;20030;-75
2023/10/22 06:45:19;;;;;;;4.45;4.18;;;;;;;11.81;100.00;99754.31;6055744;23;20053;-74
2023/10/22 06:47:46;;;;;;;4.55;4.35;;;;;;;11.67;100.00;99736.09;6023011;23;20063;-78
2023/10/22 06:50:14;;;;;;;5.25;4.88;;;;;;;11.41;100.00;99703.81;6051093;23;20084;-76
2023/10/22 06:52:43;;;;;;;5.70;5.40;;;;;;;11.77;100.00;99776.53;6042193;23;20029;-74
2023/10/22 06:55:10;;;;;;;4.50;4.30;;;;;;;11.79;100.00;99785.13;6047578;23;20105;-76
2023/10/22 06:57:38;;;;;;;4.60;4.40;;;;;;;11.88;100.00;99807.28;6047129;23;20030;-76
2023/10/22 07:00:07;;;;;;;4.32;4.13;;;;;;;11.16;100.00;99679.25;6050897;23;20022;-75
2023/10/22 07:02:34;;;;;;;5.13;4.68;;;;;;;11.96;100.00;99807.59;6043788;23;20029;-75
2023/10/22 07:05:01;;;;;;;4.30;4.10;;;;;;;11.97;100.00;99804.03;6057957;23;20030;-75
2023/10/22 07:07:28;;;;;;;4.25;4.05;;;;;;;11.91;100.00;99793.97;6053860;23;20413;-75
2023/10/22 07:09:55;;;;;;;4.40;4.20;;;;;;;12.09;100.00;99823.34;6053281;23;20034;-76
2023/10/22 07:12:22;;;;;;;4.88;4.57;;;;;;;11.79;100.00;99774.63;6047065;23;20030;-77
2023/10/22 07:14:48;;;;;;;6.10;5.80;;;;;;;12.13;100.00;99830.91;6055833;23;20026;-76
2023/10/22 07:17:15;;;;;;;4.70;4.40;;;;;;;12.09;100.00;99837.34;6046143;23;20030;-76
2023/10/22 07:19:42;;;;;;;4.25;4.05;;;;;;;12.07;100.00;99848.94;6018597;23;20055;-76
2023/10/22 07:22:08;;;;;;;4.25;4.05;;;;;;;11.97;100.00;99806.66;6053000;23;20029;-74
2023/10/22 07:24:35;;;;;;;4.82;4.53;;;;;;;12.20;100.00;99833.09;6050087;23;20091;-76
2023/10/22 07:27:02;;;;;;;4.60;4.30;;;;;;;12.26;100.00;99825.56;6054731;23;20053;-76
2023/10/22 07:29:28;;;;;;;4.20;4.00;;;;;;;11.95;100.00;99764.69;6018917;23;20034;-74
2023/10/22 07:31:55;;;;;;;4.47;4.28;;;;;;;11.51;100.00;99670.66;6051435;23;21480;-76
2023/10/22 07:34:21;;;;;;;4.30;4.10;;;;;;;12.49;100.00;99825.69;6019733;23;20042;-75
2023/10/22 07:36:48;;;;;;;5.82;5.53;;;;;;;12.47;100.00;99828.44;6038722;23;20054;-74
2023/10/22 07:39:14;;;;;;;4.38;4.18;;;;;;;12.23;100.00;99791.63;6016765;23;20521;-75
2023/10/22 07:41:41;;;;;;;4.88;4.57;;;;;;;12.46;100.00;99804.84;6039734;23;20050;-75
2023/10/22 07:44:07;;;;;;;4.50;4.30;;;;;;;12.07;100.00;99736.66;6049786;23;20058;-77
2023/10/22 07:46:34;;;;;;;4.35;4.13;;;;;;;11.21;100.00;99569.50;6022814;23;20389;-77
2023/10/22 07:49:00;;;;;;;4.40;4.20;;;;;;;12.24;100.00;99740.66;5993193;23;20422;-75
2023/10/22 07:51:27;;;;;;;4.53;4.32;;;;;;;12.46;100.00;99768.84;6023966;23;20029;-77
2023/10/22 07:53:54;;;;;;;4.45;4.25;;;;;;;11.82;100.00;99678.91;6045238;23;20034;-75
2023/10/22 07:56:20;;;;;;;4.30;4.10;;;;;;;11.79;100.00;99674.72;6047548;23;20093;-78
2023/10/22 07:58:47;;;;;;;5.65;5.45;;;;;;;12.56;100.00;99801.41;6048846;23;20097;-76
2023/10/22 08:01:14;;;;;;;4.63;4.38;;;;;;;11.43;100.00;99633.59;6049410;23;20037;-79
2023/10/22 08:03:41;;;;;;;4.78;4.57;;;;;;;12.27;100.00;99766.75;6060261;23;20054;-76
2023/10/22 08:06:07;;;;;;;4.97;4.68;;;;;;;11.92;100.00;99722.84;6044933;23;20035;-74
2023/10/22 08:08:34;;;;;;;4.78;4.35;;;;;;;12.54;100.00;99811.22;6016647;23;20520;-76
2023/10/22 08:11:03;;;;;;;4.32;4.13;;;;;;;12.71;100.00;99815.22;6046530;23;21807;-74
2023/10/22 08:13:30;;;;;;;4.40;4.20;;;;;;;12.28;100.00;99755.25;6053990;23;20019;-73
2023/10/22 08:15:56;;;;;;;4.80;4.50;;;;;;;11.98;100.00;99711.88;6042534;23;20440;-75
2023/10/22 08:18:23;;;;;;;4.78;4.57;;;;;;;12.32;100.00;99779.56;6052802;23;20014;-74
2023/10/22 08:20:50;;;;;;;6.05;5.75;;;;;;;12.78;100.00;99845.38;6046041;23;20084;-74
2023/10/22 08:23:17;;;;;;;4.88;4.63;;;;;;;12.12;100.00;99738.94;6032338;23;20034;-74
2023/10/22 08:25:51;;;;;;;4.78;4.57;;;;;;;12.14;100.00;99758.09;6052979;23;20094;-74
2023/10/22 08:28:18;;;;;;;4.75;4.55;;;;;;;12.83;100.00;99873.16;6063002;23;20030;-74
2023/10/22 08:30:45;;;;;;;5.95;5.65;;;;;;;12.17;100.00;99777.13;6046780;23;20018;-74
2023/10/22 08:33:12;;;;;;;4.90;4.70;;;;;;;12.61;100.00;99837.94;6065469;23;20034;-74
2023/10/22 08:35:39;;;;;;;4.40;4.20;;;;;;;12.16;100.00;99766.69;6025789;23;20089;-75
2023/10/22 08:38:06;;;;;;;5.18;4.88;;;;;;;12.74;100.00;99864.16;6002255;23;20022;-75
2023/10/22 08:40:38;;;;;;;5.03;4.63;;;;;;;13.17;100.00;99943.44;6052567;23;20086;-77
2023/10/22 08:43:17;;;;;;;4.60;4.40;;;;;;;13.12;100.00;99936.84;6018501;23;20042;-75
2023/10/22 08:45:49;;;;;;;4.55;4.35;;;;;;;13.04;100.00;99913.69;6045728;23;20018;-79
2023/10/22 08:48:17;;;;;;;4.80;4.47;;;;;;;13.21;100.00;99943.19;6054044;23;20098;-76
2023/10/22 08:50:46;;;;;;;5.93;5.65;;;;;;;13.11;100.00;99932.50;6019461;23;20007;-75
2023/10/22 08:53:14;;;;;;;4.82;4.63;;;;;;;13.31;100.00;99965.31;6054974;23;20042;-76
2023/10/22 08:55:47;;;;;;;5.13;4.60;;;;;;;12.64;100.00;99844.75;6030509;23;20035;-77
2023/10/22 08:58:17;;;;;;;6.28;5.97;;;;;;;13.42;100.00;99983.78;6052399;23;20060;-76
2023/10/22 09:00:45;;;;;;;5.60;5.40;;;;;;;13.41;100.00;99982.13;6054061;23;20010;-77
2023/10/22 09:03:14;;;;;;;4.60;4.40;;;;;;;13.45;100.00;99974.81;6026726;23;20042;-77
2023/10/22 09:05:41;;;;;;;4.65;4.45;;;;;;;13.45;100.00;99961.63;6054689;23;20160;-77
2023/10/22 09:08:09;;;;;;;4.63;4.43;;;;;;;13.39;100.00;99965.59;6048912;23;20620;-77
2023/10/22 09:10:36;;;;;;;4.82;4.63;;;;;;;12.40;100.00;99810.56;6059940;23;20030;-78
2023/10/22 09:13:10;;;;;;;5.20;4.80;;;;;;;13.46;100.00;99968.59;6052929;23;20049;-76
2023/10/22 09:15:38;;;;;;;4.70;4.43;;;;;;;13.59;100.00;99994.84;6023049;23;20031;-77
2023/10/22 09:18:04;;;;;;;4.85;4.65;;;;;;;12.78;100.00;99863.00;6045181;23;20026;-77
2023/10/22 09:20:34;;;;;;;4.80;4.60;;;;;;;12.96;100.00;99877.41;6054161;23;20026;-75
2023/10/22 09:23:23;;;;;;;4.72;4.53;;;;;;;13.44;100.00;99963.44;6046486;23;20612;-76
2023/10/22 09:25:56;;;;;;;4.50;4.30;;;;;;;12.13;100.00;99759.06;6063736;23;20045;-74
2023/10/22 09:28:25;;;;;;;4.90;4.70;;;;;;;13.50;100.00;99981.41;6057208;23;20038;-78
2023/10/22 09:31:04;;;;;;;5.28;5.07;;;;;;;13.50;100.00;99985.84;6054214;23;20114;-72
2023/10/22 09:33:38;;;;;;;4.80;4.60;;;;;;;13.49;100.00;99992.94;6044682;23;20027;-77
2023/10/22 09:36:12;;;;;;;4.90;4.70;;;;;;;13.47;100.00;99981.66;6056524;23;20650;-77
2023/10/22 09:38:43;;;;;;;6.25;5.85;;;;;;;13.65;100.00;100013.69;6047486;23;20065;-77
2023/10/22 09:41:13;;;;;;;4.78;4.57;;;;;;;13.38;100.00;99961.25;6056390;23;20050;-76
2023/10/22 09:43:41;;;;;;;4.53;4.32;;;;;;;13.37;100.00;99951.69;6025999;23;20707;-76
2023/10/22 09:46:08;;;;;;;5.30;4.80;;;;;;;13.72;100.00;100004.34;6031591;23;20025;-76
2023/10/22 09:48:35;;;;;;;4.75;4.55;;;;;;;13.12;100.00;99892.06;6052200;23;20031;-78
2023/10/22 09:51:05;;;;;;;4.75;4.55;;;;;;;13.72;100.00;99996.44;6059524;23;20106;-74
2023/10/22 09:53:53;;;;;;;4.80;4.60;;;;;;;13.80;100.00;99993.22;6051339;23;20018;-78
2023/10/22 09:56:21;;;;;;;5.15;4.95;;;;;;;13.90;100.00;100017.09;6058644;23;20491;-78
2023/10/22 09:58:54;;;;;;;6.13;5.82;;;;;;;13.94;100.00;100016.72;6042026;23;20030;-75
2023/10/22 10:01:21;;;;;;;6.40;5.80;;;;;;;13.98;100.00;100004.13;6055752;23;20046;-75
2023/10/22 10:03:48;;;;;;;5.32;5.03;;;;;;;13.60;100.00;99928.00;6045298;23;20035;-75
2023/10/22 10:06:15;;;;;;;5.22;4.90;;;;;;;13.20;100.00;99868.59;6010266;23;20023;-76
2023/10/22 10:08:42;;;;;;;5.90;5.65;;;;;;;13.40;100.00;99875.00;6045901;23;20757;-76
2023/10/22 10:11:11;;;;;;;5.10;4.80;;;;;;;13.80;100.00;99924.63;6012636;23;20026;-75
2023/10/22 10:13:37;;;;;;;4.80;4.50;;;;;;;13.52;100.00;99889.03;6048621;23;20023;-76
2023/10/22 10:16:06;;;;;;;4.57;4.38;;;;;;;12.64;100.00;99719.25;6063349;23;20018;-74
2023/10/22 10:19:01;;;;;;;5.28;5.00;;;;;;;14.14;100.00;99967.69;6019060;23;20021;-75
2023/10/22 10:21:33;;;;;;;4.85;4.65;;;;;;;14.15;100.00;99948.25;6056878;23;20097;-76
2023/10/22 10:24:17;;;;;;;6.88;6.18;;;;;;;13.77;100.00;99872.13;6043744;23;20548;-75
2023/10/22 10:26:44;;;;;;;7.32;6.68;;;;;;;13.89;100.00;99868.53;6053604;23;20022;-75
2023/10/22 10:29:19;;;;;;;5.53;5.13;;;;;;;13.31;100.00;99771.16;6027455;23;20030;-75
2023/10/22 10:31:50;;;;;;;5.03;4.72;;;;;;;14.56;100.00;99980.25;6053339;23;20795;-75
2023/10/22 10:34:36;;;;;;;4.80;4.60;;;;;;;14.89;100.00;100003.13;5996811;23;20116;-74
2023/10/22 10:37:12;;;;;;;4.72;4.53;;;;;;;14.99;100.00;99955.63;6052780;23;20048;-76
2023/10/22 10:39:42;;;;;;;4.68;4.47;;;;;;;14.82;100.00;99861.09;6057523;23;20026;-76
2023/10/22 10:42:10;;;;;;;4.80;4.60;;;;;;;15.08;100.00;99843.03;6045716;23;20099;-76
2023/10/22 10:44:58;;;;;;;6.43;5.60;;;;;;;15.17;100.00;99847.53;6056909;23;20038;-74
2023/10/22 10:47:24;;;;;;;5.18;4.88;;;;;;;15.18;100.00;99885.38;6016815;23;20029;-75
2023/10/22 10:50:11;;;;;;;4.90;4.70;;;;;;;14.96;100.00;99868.69;6059876;23;20088;-75
2023/10/22 10:52:38;;;;;;;5.88;5.57;;;;;;;15.03;100.00;99908.63;6054234;23;20091;-75
2023/10/22 10:55:29;;;;;;;4.90;4.70;;;;;;;14.48;100.00;99805.75;6043719;23;20039;-75
2023/10/22 10:57:56;;;;;;;4.70;4.50;;;;;;;14.66;100.00;99843.88;6053939;23;20038;-76
2023/10/22 11:00:28;;;;;;;5.78;5.53;;;;;;;15.10;100.00;99931.78;6038111;23;20031;-75
2023/10/22 11:02:56;;;;;;;4.70;4.50;;;;;;;14.95;100.00;99893.41;6058606;23;20038;-74
2023/10/22 11:05:39;;;;;;;4.72;4.53;;;;;;;14.98;100.00;99927.53;6042916;23;20570;-76
2023/10/22 11:08:15;;;;;;;4.53;4.32;;;;;;;14.92;100.00;99898.97;6022826;23;20581;-75
2023/10/22 11:10:42;;;;;;;5.57;5.38;;;;;;;14.75;100.00;99845.75;6039338;23;20063;-75
2023/10/22 11:13:09;;;;;;;4.75;4.55;;;;;;;14.59;100.00;99811.00;6051262;23;20029;-75
2023/10/22 11:15:40;;;;;;;4.90;4.70;;;;;;;14.59;100.00;99803.06;6051617;23;20030;-76
2023/10/22 11:18:09;;;;;;;4.93;4.72;;;;;;;15.24;100.00;99885.69;6047300;23;20500;-76
2023/10/22 11:20:38;;;;;;;5.45;5.20;;;;;;;14.76;100.00;99825.44;6042530;23;20167;-76
2023/10/22 11:23:18;;;;;;;5.00;4.75;;;;;;;15.32;100.00;99914.13;6030166;23;20022;-75
2023/10/22 11:25:46;;;;;;;4.70;4.50;;;;;;;15.15;99.54;99830.97;6050137;23;20022;-76
2023/10/22 11:28:13;;;;;;;4.97;4.78;;;;;;;14.75;98.56;99769.16;6056601;23;20108;-75
2023/10/22 11:30:41;;;;;;;6.45;6.05;;;;;;;13.95;99.72;99678.13;6045045;23;20022;-74